Wind From: 20-09-2018 10:00 Until: 20:00 warning for: Wind Level: Yellow info button
suomi:
Tuulivaroitus maa-alueille: Lounaistuuli on voimakasta iltapäivällä ja illalla, tuulen nopeus puuskissa 15 m/s.

svenska:
Vindvarning för landområden: På eftermiddagen och kvällen är den sydvästliga vinden kraftigt, i vindbyarna 15 m/s.

english:
Wind warning for land areas: In the afternoon and in the evening, strong winds from southwest may bring strong gusts of 15 m/s. 


Thunder radar more information blitzortung!


Löydät sääaseman tiedot myös:

European Weather Network

Finland Weather Exchange

Weather Underground

AWEKAS



Weather Underground säähistoriasivu

Päivittäin yhteenveto Tammikuu 4, 2017 Yksiköt:  Molemmat    Englantilaiset   Metriset
« Edellinen Päivä
Seuraava Päivä »
Päivittäin Viikoittain Kuukausittain Vuosittain Mukautettu
  Korkea: Matala: Keskiarvo:
Lämpötila: TemperatureC °F /  -17.8 °C -19.7 °F /  -28.7 °C -15.7 °F /  -26.5 °C
Kastepiste: DewpointC °F /  -17.8 °C -21.5 °F /  -29.7 °C -17.2 °F /  -27.3 °C
Kosteus: Humidity % 85 % 87 %
Tuulen nopeus: WindSpeedKMH mph /  0 km/h - 0 mph /  0 km/h
Tuulenpuuska: WindSpeedGustKMH mph /  0 km/h - -
Tuuli:- - North
Ilmanpaine: PressurehPa in /  0 hPa 997.9 in /  33788.9 hPa -
Sade: 0.0 in /  0 mm    
Historical Graphs
 
 
Taulukkotiedot Tammikuu 4, 2017
Aika Lämpötila Kastepiste Ilmanpaine Tuuli Tuulen nopeus Tuulenpuuska Kosteus Sademäärä (tunneittain)
TemperatureC °F /  -17.8 °C DewpointC °F /  -17.8 °C PressurehPa in /  0 hPa Calm     Humidity % HourlyPrecipMM in /  0 mm
00:00 -11.4 °F /  -24.1 °C -13.0 °F /  -25 °C 997.9 in /  33788.9 hPa Calm   1.6 mph /  2.6 km/h 88 % 0.0 in /  0 mm
00:15 -11.7 °F /  -24.3 °C -13.2 °F /  -25.1 °C 997.9 in /  33788.9 hPa Calm     89 % 0.0 in /  0 mm
00:30 -12.0 °F /  -24.4 °C -13.4 °F /  -25.2 °C 997.9 in /  33788.9 hPa Calm     89 % 0.0 in /  0 mm
00:45 -12.3 °F /  -24.6 °C -13.8 °F /  -25.4 °C 998.2 in /  33799.1 hPa Calm     89 % 0.0 in /  0 mm
01:00 -12.1 °F /  -24.5 °C -13.2 °F /  -25.1 °C 998.2 in /  33799.1 hPa Calm   1.6 mph /  2.6 km/h 91 % 0.0 in /  0 mm
01:15 -11.8 °F /  -24.3 °C -12.9 °F /  -24.9 °C 998.5 in /  33809.2 hPa Calm   1.6 mph /  2.6 km/h 91 % 0.0 in /  0 mm
01:30 -11.7 °F /  -24.3 °C -13.0 °F /  -25 °C 998.5 in /  33809.2 hPa Calm     90 % 0.0 in /  0 mm
01:45 -11.7 °F /  -24.3 °C -12.8 °F /  -24.9 °C 998.5 in /  33809.2 hPa Calm     91 % 0.0 in /  0 mm
02:00 -11.4 °F /  -24.1 °C -12.6 °F /  -24.8 °C 998.9 in /  33822.8 hPa Calm   3.2 mph /  5.1 km/h 91 % 0.0 in /  0 mm
02:15 -11.3 °F /  -24.1 °C -12.6 °F /  -24.8 °C 998.9 in /  33822.8 hPa Calm   1.6 mph /  2.6 km/h 90 % 0.0 in /  0 mm
02:30 -11.3 °F /  -24.1 °C -12.6 °F /  -24.8 °C 998.9 in /  33822.8 hPa Calm     90 % 0.0 in /  0 mm
02:45 -11.3 °F /  -24.1 °C -12.6 °F /  -24.8 °C 999.2 in /  33832.9 hPa Calm     90 % 0.0 in /  0 mm
03:00 -11.4 °F /  -24.1 °C -12.7 °F /  -24.8 °C 999.5 in /  33843.1 hPa Calm     90 % 0.0 in /  0 mm
03:15 -11.6 °F /  -24.2 °C -12.9 °F /  -24.9 °C 999.9 in /  33856.6 hPa Calm     90 % 0.0 in /  0 mm
03:30 -11.8 °F /  -24.3 °C -13.2 °F /  -25.1 °C 999.9 in /  33856.6 hPa Calm     89 % 0.0 in /  0 mm
03:45 -12.2 °F /  -24.6 °C -13.6 °F /  -25.3 °C 1000.2 in /  33866.8 hPa Calm     89 % 0.0 in /  0 mm
04:00 -12.4 °F /  -24.7 °C -13.8 °F /  -25.4 °C 1000.6 in /  33880.3 hPa Calm     89 % 0.0 in /  0 mm
04:15 -12.6 °F /  -24.8 °C -14.0 °F /  -25.6 °C 1000.6 in /  33880.3 hPa Calm     89 % 0.0 in /  0 mm
04:30 -12.8 °F /  -24.9 °C -14.3 °F /  -25.7 °C 1000.9 in /  33890.5 hPa Calm     89 % 0.0 in /  0 mm
04:45 -12.8 °F /  -24.9 °C -14.1 °F /  -25.6 °C 1001.2 in /  33900.6 hPa Calm     90 % 0.0 in /  0 mm
05:00 -12.9 °F /  -24.9 °C -14.2 °F /  -25.7 °C 1001.2 in /  33900.6 hPa Calm     90 % 0.0 in /  0 mm
05:15 -13.0 °F /  -25 °C -14.3 °F /  -25.7 °C 1001.6 in /  33914.2 hPa Calm   1.6 mph /  2.6 km/h 90 % 0.0 in /  0 mm
05:30 -12.9 °F /  -24.9 °C -14.2 °F /  -25.7 °C 1001.9 in /  33924.3 hPa Calm     90 % 0.0 in /  0 mm
05:45 -12.9 °F /  -24.9 °C -14.2 °F /  -25.7 °C 1002.3 in /  33937.9 hPa Calm     90 % 0.0 in /  0 mm
06:00 -13.1 °F /  -25.1 °C -14.3 °F /  -25.7 °C 1002.3 in /  33937.9 hPa Calm     90 % 0.0 in /  0 mm
06:15 -13.2 °F /  -25.1 °C -14.7 °F /  -25.9 °C 1002.6 in /  33948 hPa Calm     89 % 0.0 in /  0 mm
06:30 -13.3 °F /  -25.2 °C -14.6 °F /  -25.9 °C 1002.9 in /  33958.2 hPa Calm     90 % 0.0 in /  0 mm
06:45 -13.4 °F /  -25.2 °C -14.9 °F /  -26.1 °C 1003.3 in /  33971.7 hPa Calm     89 % 0.0 in /  0 mm
07:00 -13.6 °F /  -25.3 °C -14.8 °F /  -26 °C 1003.6 in /  33981.9 hPa Calm     90 % 0.0 in /  0 mm
07:15 -13.6 °F /  -25.3 °C -14.8 °F /  -26 °C 1003.6 in /  33981.9 hPa Calm     90 % 0.0 in /  0 mm
07:30 -13.7 °F /  -25.4 °C -15.1 °F /  -26.2 °C 1003.9 in /  33992.1 hPa Calm     89 % 0.0 in /  0 mm
07:45 -13.8 °F /  -25.4 °C -15.3 °F /  -26.3 °C 1004.3 in /  34005.6 hPa Calm     89 % 0.0 in /  0 mm
08:00 -13.9 °F /  -25.5 °C -15.4 °F /  -26.3 °C 1004.6 in /  34015.8 hPa Calm     89 % 0.0 in /  0 mm
08:15 -14.1 °F /  -25.6 °C -15.5 °F /  -26.4 °C 1005.0 in /  34029.3 hPa Calm   1.6 mph /  2.6 km/h 89 % 0.0 in /  0 mm
08:30 -14.4 °F /  -25.8 °C -15.9 °F /  -26.6 °C 1005.3 in /  34039.5 hPa Calm     88 % 0.0 in /  0 mm
08:45 -14.8 °F /  -26 °C -16.3 °F /  -26.8 °C 1005.6 in /  34049.6 hPa Calm     88 % 0.0 in /  0 mm
09:00 -14.9 °F /  -26.1 °C -16.5 °F /  -26.9 °C 1006.0 in /  34063.2 hPa Calm     88 % 0.0 in /  0 mm
09:15 -15.1 °F /  -26.2 °C -16.7 °F /  -27.1 °C 1006.3 in /  34073.3 hPa Calm     88 % 0.0 in /  0 mm
09:30 -15.3 °F /  -26.3 °C -16.9 °F /  -27.2 °C 1007.0 in /  34097 hPa Calm     88 % 0.0 in /  0 mm
09:45 -15.4 °F /  -26.3 °C -16.8 °F /  -27.1 °C 1007.3 in /  34107.2 hPa Calm     89 % 0.0 in /  0 mm
10:00 -15.5 °F /  -26.4 °C -17.0 °F /  -27.2 °C 1007.7 in /  34120.7 hPa Calm   1.6 mph /  2.6 km/h 88 % 0.0 in /  0 mm
10:15 -15.6 °F /  -26.4 °C -17.1 °F /  -27.3 °C 1008.0 in /  34130.9 hPa Calm     88 % 0.0 in /  0 mm
10:30 -15.7 °F /  -26.5 °C -17.3 °F /  -27.4 °C 1008.4 in /  34144.4 hPa Calm     88 % 0.0 in /  0 mm
10:45 -15.8 °F /  -26.6 °C -17.4 °F /  -27.4 °C 1008.7 in /  34154.6 hPa Calm     88 % 0.0 in /  0 mm
11:00 -15.9 °F /  -26.6 °C -17.4 °F /  -27.4 °C 1009.0 in /  34164.7 hPa Calm     88 % 0.0 in /  0 mm
11:15 -15.9 °F /  -26.6 °C -17.5 °F /  -27.5 °C 1009.4 in /  34178.3 hPa Calm   1.6 mph /  2.6 km/h 88 % 0.0 in /  0 mm
11:30 -16.1 °F /  -26.7 °C -17.6 °F /  -27.6 °C 1009.7 in /  34188.4 hPa Calm     88 % 0.0 in /  0 mm
11:45 -16.2 °F /  -26.8 °C -17.7 °F /  -27.6 °C 1009.7 in /  34188.4 hPa Calm   1.6 mph /  2.6 km/h 88 % 0.0 in /  0 mm
12:00 -16.3 °F /  -26.8 °C -17.8 °F /  -27.7 °C 1010.0 in /  34198.6 hPa Calm   1.6 mph /  2.6 km/h 88 % 0.0 in /  0 mm
12:15 -16.3 °F /  -26.8 °C -17.9 °F /  -27.7 °C 1010.4 in /  34212.1 hPa Calm     88 % 0.0 in /  0 mm
12:30 -16.4 °F /  -26.9 °C -18.0 °F /  -27.8 °C 1010.7 in /  34222.3 hPa Calm     88 % 0.0 in /  0 mm
12:45 -16.4 °F /  -26.9 °C -18.0 °F /  -27.8 °C 1011.1 in /  34235.8 hPa Calm     88 % 0.0 in /  0 mm
13:15 -16.5 °F /  -26.9 °C -18.0 °F /  -27.8 °C 1011.4 in /  34246 hPa Calm     88 % 0.0 in /  0 mm
13:30 -16.4 °F /  -26.9 °C -18.0 °F /  -27.8 °C 1011.7 in /  34256.2 hPa Calm   1.6 mph /  2.6 km/h 88 % 0.0 in /  0 mm
13:45 -16.6 °F /  -27 °C -18.3 °F /  -27.9 °C 1012.1 in /  34269.7 hPa Calm   1.6 mph /  2.6 km/h 87 % 0.0 in /  0 mm
14:00 -16.8 °F /  -27.1 °C -18.4 °F /  -28 °C 1012.4 in /  34279.9 hPa Calm   1.6 mph /  2.6 km/h 87 % 0.0 in /  0 mm
14:15 -16.9 °F /  -27.2 °C -18.6 °F /  -28.1 °C 1012.4 in /  34279.9 hPa Calm     87 % 0.0 in /  0 mm
14:30 -17.2 °F /  -27.3 °C -18.9 °F /  -28.3 °C 1013.1 in /  34303.6 hPa Calm   1.6 mph /  2.6 km/h 87 % 0.0 in /  0 mm
14:45 -17.3 °F /  -27.4 °C -19.1 °F /  -28.4 °C 1013.4 in /  34313.7 hPa Calm   1.6 mph /  2.6 km/h 86 % 0.0 in /  0 mm
15:00 -17.6 °F /  -27.6 °C -19.3 °F /  -28.5 °C 1013.8 in /  34327.3 hPa Calm     86 % 0.0 in /  0 mm
15:15 -17.7 °F /  -27.6 °C -19.5 °F /  -28.6 °C 1014.1 in /  34337.4 hPa Calm   1.6 mph /  2.6 km/h 86 % 0.0 in /  0 mm
15:30 -17.9 °F /  -27.7 °C -19.7 °F /  -28.7 °C 1014.1 in /  34337.4 hPa Calm     86 % 0.0 in /  0 mm
15:45 -18.2 °F /  -27.9 °C -19.9 °F /  -28.8 °C 1014.8 in /  34361.1 hPa Calm     86 % 0.0 in /  0 mm
16:00 -18.3 °F /  -27.9 °C -20.0 °F /  -28.9 °C 1014.8 in /  34361.1 hPa Calm     86 % 0.0 in /  0 mm
16:15 -18.4 °F /  -28 °C -20.2 °F /  -29 °C 1015.1 in /  34371.3 hPa Calm     86 % 0.0 in /  0 mm
16:30 -18.5 °F /  -28.1 °C -20.1 °F /  -28.9 °C 1015.8 in /  34395 hPa Calm   1.6 mph /  2.6 km/h 87 % 0.0 in /  0 mm
16:45 -18.6 °F /  -28.1 °C -20.3 °F /  -29.1 °C 1015.8 in /  34395 hPa Calm   1.6 mph /  2.6 km/h 86 % 0.0 in /  0 mm
17:00 -18.7 °F /  -28.2 °C -20.4 °F /  -29.1 °C 1016.1 in /  34405.1 hPa Calm   1.6 mph /  2.6 km/h 86 % 0.0 in /  0 mm
17:15 -18.9 °F /  -28.3 °C -20.7 °F /  -29.3 °C 1016.5 in /  34418.7 hPa Calm     86 % 0.0 in /  0 mm
17:30 -19.1 °F /  -28.4 °C -20.8 °F /  -29.3 °C 1016.8 in /  34428.8 hPa Calm     86 % 0.0 in /  0 mm
17:45 -19.2 °F /  -28.4 °C -20.9 °F /  -29.4 °C 1016.8 in /  34428.8 hPa Calm   1.6 mph /  2.6 km/h 86 % 0.0 in /  0 mm
18:00 -19.3 °F /  -28.5 °C -21.0 °F /  -29.4 °C 1017.2 in /  34442.4 hPa Calm     86 % 0.0 in /  0 mm
18:15 -19.3 °F /  -28.5 °C -21.1 °F /  -29.5 °C 1017.5 in /  34452.6 hPa Calm   1.6 mph /  2.6 km/h 86 % 0.0 in /  0 mm
18:30 -19.3 °F /  -28.5 °C -21.1 °F /  -29.5 °C 1017.8 in /  34462.7 hPa Calm     86 % 0.0 in /  0 mm
18:45 -19.3 °F /  -28.5 °C -21.0 °F /  -29.4 °C 1018.2 in /  34476.3 hPa Calm   1.6 mph /  2.6 km/h 86 % 0.0 in /  0 mm
19:00 -19.2 °F /  -28.4 °C -21.0 °F /  -29.4 °C 1018.2 in /  34476.3 hPa Calm     86 % 0.0 in /  0 mm
19:15 -19.2 °F /  -28.4 °C -20.8 °F /  -29.3 °C 1018.5 in /  34486.4 hPa Calm     87 % 0.0 in /  0 mm
19:30 -19.2 °F /  -28.4 °C -20.8 °F /  -29.3 °C 1018.8 in /  34496.6 hPa Calm   1.6 mph /  2.6 km/h 87 % 0.0 in /  0 mm
19:45 -19.3 °F /  -28.5 °C -21.0 °F /  -29.4 °C 1018.8 in /  34496.6 hPa Calm   1.6 mph /  2.6 km/h 86 % 0.0 in /  0 mm
20:00 -19.4 °F /  -28.6 °C -21.1 °F /  -29.5 °C 1018.8 in /  34496.6 hPa Calm   1.6 mph /  2.6 km/h 86 % 0.0 in /  0 mm
20:15 -19.6 °F /  -28.7 °C -21.4 °F /  -29.7 °C 1019.2 in /  34510.1 hPa Calm     86 % 0.0 in /  0 mm
20:30 -19.6 °F /  -28.7 °C -21.2 °F /  -29.6 °C 1019.5 in /  34520.3 hPa Calm     87 % 0.0 in /  0 mm
20:45 -19.5 °F /  -28.6 °C -21.1 °F /  -29.5 °C 1019.9 in /  34533.8 hPa Calm     87 % 0.0 in /  0 mm
21:00 -19.4 °F /  -28.6 °C -21.0 °F /  -29.4 °C 1019.9 in /  34533.8 hPa Calm   1.6 mph /  2.6 km/h 87 % 0.0 in /  0 mm
21:15 -19.2 °F /  -28.4 °C -20.8 °F /  -29.3 °C 1020.2 in /  34544 hPa Calm     87 % 0.0 in /  0 mm
21:30 -19.1 °F /  -28.4 °C -20.7 °F /  -29.3 °C 1020.2 in /  34544 hPa Calm     87 % 0.0 in /  0 mm
21:45 -18.9 °F /  -28.3 °C -20.7 °F /  -29.3 °C 1020.5 in /  34554.1 hPa Calm   1.6 mph /  2.6 km/h 86 % 0.0 in /  0 mm
22:00 -18.9 °F /  -28.3 °C -20.7 °F /  -29.3 °C 1020.5 in /  34554.1 hPa Calm     86 % 0.0 in /  0 mm
22:15 -19.0 °F /  -28.3 °C -20.8 °F /  -29.3 °C 1020.9 in /  34567.7 hPa Calm     86 % 0.0 in /  0 mm
22:30 -19.2 °F /  -28.4 °C -20.9 °F /  -29.4 °C 1020.9 in /  34567.7 hPa Calm     86 % 0.0 in /  0 mm
22:45 -19.3 °F /  -28.5 °C -21.0 °F /  -29.4 °C 1021.2 in /  34577.8 hPa Calm     86 % 0.0 in /  0 mm
23:00 -19.6 °F /  -28.7 °C -21.5 °F /  -29.7 °C 1021.6 in /  34591.4 hPa Calm     85 % 0.0 in /  0 mm
23:15 -19.7 °F /  -28.7 °C -21.5 °F /  -29.7 °C 1021.9 in /  34601.5 hPa Calm     86 % 0.0 in /  0 mm
23:30 -19.4 °F /  -28.6 °C -21.1 °F /  -29.5 °C 1022.2 in /  34611.7 hPa Calm     87 % 0.0 in /  0 mm
23:45 -19.2 °F /  -28.4 °C -20.8 °F /  -29.3 °C 1022.6 in /  34625.2 hPa Calm     87 % 0.0 in /  0 mm
Esan sääasema
Terveisin Weather Underground - 2.75 mb

Alkuperäinen skripti  Jim McMurry - jmcmurry@mwt.net Sovitettu myös templatelle  Wim van der Kuil - Leuven-Template.eu

Laitteet joita käytämme:

Sääasema
Davis VP2

Sääasemaohjelma
Cumulus

Sääaseman tietokone
Asus EeePC

Palveluntarjoaja
Suncomet

Davis VP2

Cumulus

Asus EeePC

Suncomet